sensor_id;sensor_type;location;lat;lon;timestamp;P1;durP1;ratioP1;P2;durP2;ratioP2
6173;SDS011;3120;48.796;9.796;2023-07-16T00:01:04;7.63;;;3.70;;
6173;SDS011;3120;48.796;9.796;2023-07-16T00:03:30;18.45;;;4.40;;
6173;SDS011;3120;48.796;9.796;2023-07-16T00:05:56;12.82;;;5.28;;
6173;SDS011;3120;48.796;9.796;2023-07-16T00:08:21;18.67;;;8.38;;
6173;SDS011;3120;48.796;9.796;2023-07-16T00:10:47;10.55;;;4.75;;
6173;SDS011;3120;48.796;9.796;2023-07-16T00:13:13;8.48;;;3.10;;
6173;SDS011;3120;48.796;9.796;2023-07-16T00:15:38;8.70;;;5.00;;
6173;SDS011;3120;48.796;9.796;2023-07-16T00:18:04;4.15;;;2.35;;
6173;SDS011;3120;48.796;9.796;2023-07-16T00:20:31;7.97;;;2.58;;
6173;SDS011;3120;48.796;9.796;2023-07-16T00:22:57;12.32;;;4.00;;
6173;SDS011;3120;48.796;9.796;2023-07-16T00:25:23;7.18;;;3.05;;
6173;SDS011;3120;48.796;9.796;2023-07-16T00:27:48;4.75;;;3.83;;
6173;SDS011;3120;48.796;9.796;2023-07-16T00:30:14;7.10;;;3.17;;
6173;SDS011;3120;48.796;9.796;2023-07-16T00:32:40;6.78;;;3.50;;
6173;SDS011;3120;48.796;9.796;2023-07-16T00:35:05;7.97;;;3.35;;
6173;SDS011;3120;48.796;9.796;2023-07-16T00:37:31;4.38;;;1.92;;
6173;SDS011;3120;48.796;9.796;2023-07-16T00:39:58;2.90;;;1.73;;
6173;SDS011;3120;48.796;9.796;2023-07-16T00:42:23;2.17;;;1.60;;
6173;SDS011;3120;48.796;9.796;2023-07-16T00:44:49;5.20;;;1.77;;
6173;SDS011;3120;48.796;9.796;2023-07-16T00:47:14;8.65;;;2.28;;
6173;SDS011;3120;48.796;9.796;2023-07-16T00:49:40;4.65;;;1.90;;
6173;SDS011;3120;48.796;9.796;2023-07-16T00:52:07;4.10;;;2.17;;
6173;SDS011;3120;48.796;9.796;2023-07-16T00:54:35;4.00;;;2.05;;
6173;SDS011;3120;48.796;9.796;2023-07-16T00:57:02;4.47;;;2.25;;
6173;SDS011;3120;48.796;9.796;2023-07-16T00:59:28;2.95;;;2.17;;
6173;SDS011;3120;48.796;9.796;2023-07-16T01:01:54;10.70;;;1.55;;
6173;SDS011;3120;48.796;9.796;2023-07-16T01:04:19;3.10;;;1.90;;
6173;SDS011;3120;48.796;9.796;2023-07-16T01:06:50;2.63;;;1.23;;
6173;SDS011;3120;48.796;9.796;2023-07-16T01:09:19;1.95;;;0.93;;
6173;SDS011;3120;48.796;9.796;2023-07-16T01:11:46;5.55;;;1.42;;
6173;SDS011;3120;48.796;9.796;2023-07-16T01:14:13;3.10;;;2.17;;
6173;SDS011;3120;48.796;9.796;2023-07-16T01:16:41;1.55;;;1.10;;
6173;SDS011;3120;48.796;9.796;2023-07-16T01:19:07;2.78;;;1.55;;
6173;SDS011;3120;48.796;9.796;2023-07-16T01:21:34;3.17;;;1.40;;
6173;SDS011;3120;48.796;9.796;2023-07-16T01:30:03;3.15;;;2.10;;
6173;SDS011;3120;48.796;9.796;2023-07-16T01:32:32;9.52;;;4.10;;
6173;SDS011;3120;48.796;9.796;2023-07-16T01:34:59;4.80;;;1.15;;
6173;SDS011;3120;48.796;9.796;2023-07-16T01:37:25;3.08;;;1.55;;
6173;SDS011;3120;48.796;9.796;2023-07-16T01:39:50;2.60;;;1.42;;
6173;SDS011;3120;48.796;9.796;2023-07-16T01:42:16;2.83;;;1.83;;
6173;SDS011;3120;48.796;9.796;2023-07-16T01:44:42;3.00;;;1.98;;
6173;SDS011;3120;48.796;9.796;2023-07-16T01:49:39;3.30;;;1.63;;
6173;SDS011;3120;48.796;9.796;2023-07-16T01:52:06;1.90;;;1.08;;
6173;SDS011;3120;48.796;9.796;2023-07-16T01:54:34;1.33;;;0.88;;
6173;SDS011;3120;48.796;9.796;2023-07-16T01:57:00;4.43;;;1.40;;
6173;SDS011;3120;48.796;9.796;2023-07-16T01:59:26;1.60;;;0.90;;
6173;SDS011;3120;48.796;9.796;2023-07-16T02:01:51;2.97;;;1.10;;
6173;SDS011;3120;48.796;9.796;2023-07-16T02:04:17;2.00;;;0.95;;
6173;SDS011;3120;48.796;9.796;2023-07-16T02:06:42;1.17;;;0.95;;
6173;SDS011;3120;48.796;9.796;2023-07-16T02:09:09;1.60;;;1.13;;
6173;SDS011;3120;48.796;9.796;2023-07-16T02:11:35;3.15;;;1.50;;
6173;SDS011;3120;48.796;9.796;2023-07-16T02:14:01;1.25;;;0.88;;
6173;SDS011;3120;48.796;9.796;2023-07-16T02:16:26;3.22;;;1.45;;
6173;SDS011;3120;48.796;9.796;2023-07-16T02:18:52;10.93;;;2.72;;
6173;SDS011;3120;48.796;9.796;2023-07-16T02:21:17;4.55;;;1.92;;
6173;SDS011;3120;48.796;9.796;2023-07-16T02:23:43;7.13;;;1.80;;
6173;SDS011;3120;48.796;9.796;2023-07-16T02:26:09;4.10;;;2.00;;
6173;SDS011;3120;48.796;9.796;2023-07-16T02:28:34;4.07;;;2.30;;
6173;SDS011;3120;48.796;9.796;2023-07-16T02:31:00;5.40;;;1.75;;
6173;SDS011;3120;48.796;9.796;2023-07-16T02:33:27;5.45;;;2.03;;
6173;SDS011;3120;48.796;9.796;2023-07-16T02:35:53;6.85;;;1.63;;
6173;SDS011;3120;48.796;9.796;2023-07-16T02:38:18;3.35;;;1.52;;
6173;SDS011;3120;48.796;9.796;2023-07-16T02:40:44;1.83;;;1.35;;
6173;SDS011;3120;48.796;9.796;2023-07-16T02:43:11;4.38;;;1.88;;
6173;SDS011;3120;48.796;9.796;2023-07-16T02:45:36;2.85;;;1.40;;
6173;SDS011;3120;48.796;9.796;2023-07-16T02:48:02;1.75;;;1.65;;
6173;SDS011;3120;48.796;9.796;2023-07-16T02:50:29;3.78;;;2.35;;
6173;SDS011;3120;48.796;9.796;2023-07-16T02:52:55;3.35;;;1.45;;
6173;SDS011;3120;48.796;9.796;2023-07-16T02:55:20;1.73;;;1.50;;
6173;SDS011;3120;48.796;9.796;2023-07-16T02:57:46;5.72;;;1.70;;
6173;SDS011;3120;48.796;9.796;2023-07-16T03:00:11;5.68;;;1.50;;
6173;SDS011;3120;48.796;9.796;2023-07-16T03:02:37;2.22;;;1.70;;
6173;SDS011;3120;48.796;9.796;2023-07-16T03:05:03;4.18;;;1.30;;
6173;SDS011;3120;48.796;9.796;2023-07-16T03:07:29;2.88;;;1.10;;
6173;SDS011;3120;48.796;9.796;2023-07-16T03:09:55;0.98;;;0.95;;
6173;SDS011;3120;48.796;9.796;2023-07-16T03:12:21;3.70;;;1.92;;
6173;SDS011;3120;48.796;9.796;2023-07-16T03:14:47;1.98;;;0.98;;
6173;SDS011;3120;48.796;9.796;2023-07-16T03:17:12;1.58;;;0.77;;
6173;SDS011;3120;48.796;9.796;2023-07-16T03:19:38;4.32;;;1.17;;
6173;SDS011;3120;48.796;9.796;2023-07-16T03:22:03;2.13;;;1.23;;
6173;SDS011;3120;48.796;9.796;2023-07-16T03:24:29;2.67;;;1.20;;
6173;SDS011;3120;48.796;9.796;2023-07-16T03:26:55;1.77;;;0.98;;
6173;SDS011;3120;48.796;9.796;2023-07-16T03:29:20;1.20;;;1.10;;
6173;SDS011;3120;48.796;9.796;2023-07-16T03:31:46;2.38;;;1.50;;
6173;SDS011;3120;48.796;9.796;2023-07-16T03:34:11;5.13;;;1.25;;
6173;SDS011;3120;48.796;9.796;2023-07-16T03:36:37;4.70;;;1.65;;
6173;SDS011;3120;48.796;9.796;2023-07-16T03:39:03;5.28;;;2.00;;
6173;SDS011;3120;48.796;9.796;2023-07-16T03:41:28;2.00;;;1.38;;
6173;SDS011;3120;48.796;9.796;2023-07-16T03:43:54;3.50;;;1.88;;
6173;SDS011;3120;48.796;9.796;2023-07-16T03:46:20;1.77;;;1.33;;
6173;SDS011;3120;48.796;9.796;2023-07-16T03:48:45;1.95;;;1.40;;
6173;SDS011;3120;48.796;9.796;2023-07-16T03:51:11;7.25;;;1.50;;
6173;SDS011;3120;48.796;9.796;2023-07-16T03:53:38;4.05;;;1.85;;
6173;SDS011;3120;48.796;9.796;2023-07-16T03:56:04;6.05;;;1.80;;
6173;SDS011;3120;48.796;9.796;2023-07-16T03:58:30;4.00;;;1.33;;
6173;SDS011;3120;48.796;9.796;2023-07-16T04:00:56;4.30;;;1.70;;
6173;SDS011;3120;48.796;9.796;2023-07-16T04:03:21;6.07;;;1.90;;
6173;SDS011;3120;48.796;9.796;2023-07-16T04:05:48;9.98;;;2.08;;
6173;SDS011;3120;48.796;9.796;2023-07-16T04:08:14;9.88;;;1.38;;
6173;SDS011;3120;48.796;9.796;2023-07-16T04:10:40;3.83;;;1.20;;
6173;SDS011;3120;48.796;9.796;2023-07-16T04:17:13;4.18;;;1.17;;
6173;SDS011;3120;48.796;9.796;2023-07-16T04:19:47;2.20;;;1.25;;
6173;SDS011;3120;48.796;9.796;2023-07-16T04:25:38;2.42;;;1.05;;
6173;SDS011;3120;48.796;9.796;2023-07-16T04:28:04;3.90;;;1.00;;
6173;SDS011;3120;48.796;9.796;2023-07-16T04:30:29;2.15;;;1.42;;
6173;SDS011;3120;48.796;9.796;2023-07-16T04:32:55;2.42;;;1.10;;
6173;SDS011;3120;48.796;9.796;2023-07-16T04:35:21;5.05;;;1.23;;
6173;SDS011;3120;48.796;9.796;2023-07-16T04:37:47;4.35;;;0.90;;
6173;SDS011;3120;48.796;9.796;2023-07-16T04:43:34;2.60;;;1.10;;
6173;SDS011;3120;48.796;9.796;2023-07-16T04:46:01;4.65;;;1.40;;
6173;SDS011;3120;48.796;9.796;2023-07-16T04:48:26;7.20;;;1.02;;
6173;SDS011;3120;48.796;9.796;2023-07-16T04:50:52;3.53;;;0.95;;
6173;SDS011;3120;48.796;9.796;2023-07-16T04:53:18;4.68;;;0.95;;
6173;SDS011;3120;48.796;9.796;2023-07-16T04:55:44;10.15;;;1.10;;
6173;SDS011;3120;48.796;9.796;2023-07-16T04:58:13;3.65;;;1.13;;
6173;SDS011;3120;48.796;9.796;2023-07-16T05:00:39;15.35;;;1.88;;
6173;SDS011;3120;48.796;9.796;2023-07-16T05:03:04;7.32;;;1.33;;
6173;SDS011;3120;48.796;9.796;2023-07-16T05:05:30;5.57;;;1.20;;
6173;SDS011;3120;48.796;9.796;2023-07-16T05:08:00;6.85;;;1.30;;
6173;SDS011;3120;48.796;9.796;2023-07-16T05:10:33;4.93;;;1.00;;
6173;SDS011;3120;48.796;9.796;2023-07-16T05:13:02;2.55;;;1.30;;
6173;SDS011;3120;48.796;9.796;2023-07-16T05:15:35;4.63;;;1.17;;
6173;SDS011;3120;48.796;9.796;2023-07-16T05:18:05;7.65;;;1.25;;
6173;SDS011;3120;48.796;9.796;2023-07-16T05:20:31;3.35;;;1.10;;
6173;SDS011;3120;48.796;9.796;2023-07-16T05:22:59;7.60;;;1.02;;
6173;SDS011;3120;48.796;9.796;2023-07-16T05:25:25;10.93;;;1.20;;
6173;SDS011;3120;48.796;9.796;2023-07-16T05:27:51;7.80;;;1.48;;
6173;SDS011;3120;48.796;9.796;2023-07-16T05:30:17;7.28;;;1.00;;
6173;SDS011;3120;48.796;9.796;2023-07-16T05:32:42;4.68;;;1.30;;
6173;SDS011;3120;48.796;9.796;2023-07-16T05:35:08;4.53;;;1.15;;
6173;SDS011;3120;48.796;9.796;2023-07-16T05:37:34;5.30;;;1.10;;
6173;SDS011;3120;48.796;9.796;2023-07-16T05:40:00;7.22;;;1.20;;
6173;SDS011;3120;48.796;9.796;2023-07-16T05:42:25;3.33;;;1.15;;
6173;SDS011;3120;48.796;9.796;2023-07-16T05:44:51;3.92;;;1.13;;
6173;SDS011;3120;48.796;9.796;2023-07-16T05:47:16;4.45;;;1.30;;
6173;SDS011;3120;48.796;9.796;2023-07-16T05:49:42;6.50;;;0.98;;
6173;SDS011;3120;48.796;9.796;2023-07-16T05:52:08;4.30;;;1.00;;
6173;SDS011;3120;48.796;9.796;2023-07-16T05:54:34;6.22;;;1.30;;
6173;SDS011;3120;48.796;9.796;2023-07-16T05:57:00;3.33;;;1.02;;
6173;SDS011;3120;48.796;9.796;2023-07-16T05:59:25;3.33;;;0.98;;
6173;SDS011;3120;48.796;9.796;2023-07-16T06:01:54;5.07;;;1.27;;
6173;SDS011;3120;48.796;9.796;2023-07-16T06:04:23;3.85;;;1.17;;
6173;SDS011;3120;48.796;9.796;2023-07-16T06:06:49;6.00;;;1.30;;
6173;SDS011;3120;48.796;9.796;2023-07-16T06:09:14;7.35;;;1.30;;
6173;SDS011;3120;48.796;9.796;2023-07-16T06:11:40;7.82;;;1.67;;
6173;SDS011;3120;48.796;9.796;2023-07-16T06:14:05;7.68;;;1.20;;
6173;SDS011;3120;48.796;9.796;2023-07-16T06:16:31;6.60;;;1.40;;
6173;SDS011;3120;48.796;9.796;2023-07-16T06:18:57;5.57;;;1.00;;
6173;SDS011;3120;48.796;9.796;2023-07-16T06:21:22;2.97;;;1.17;;
6173;SDS011;3120;48.796;9.796;2023-07-16T06:23:48;2.65;;;1.20;;
6173;SDS011;3120;48.796;9.796;2023-07-16T06:26:13;7.80;;;2.00;;
6173;SDS011;3120;48.796;9.796;2023-07-16T06:28:39;2.42;;;0.77;;
6173;SDS011;3120;48.796;9.796;2023-07-16T06:38:51;10.38;;;1.25;;
6173;SDS011;3120;48.796;9.796;2023-07-16T06:41:17;2.28;;;1.00;;
6173;SDS011;3120;48.796;9.796;2023-07-16T06:43:43;13.20;;;1.30;;
6173;SDS011;3120;48.796;9.796;2023-07-16T06:46:09;3.05;;;1.10;;
6173;SDS011;3120;48.796;9.796;2023-07-16T15:09:34;5.13;;;1.00;;
6173;SDS011;3120;48.796;9.796;2023-07-16T15:12:10;2.33;;;0.93;;
6173;SDS011;3120;48.796;9.796;2023-07-16T15:19:46;3.17;;;0.90;;
6173;SDS011;3120;48.796;9.796;2023-07-16T15:22:12;2.00;;;0.90;;
6173;SDS011;3120;48.796;9.796;2023-07-16T15:29:48;1.25;;;0.77;;
6173;SDS011;3120;48.796;9.796;2023-07-16T15:32:14;4.85;;;1.33;;
6173;SDS011;3120;48.796;9.796;2023-07-16T15:34:40;2.58;;;1.00;;
6173;SDS011;3120;48.796;9.796;2023-07-16T15:37:07;4.63;;;1.17;;
6173;SDS011;3120;48.796;9.796;2023-07-16T15:39:34;1.67;;;1.15;;
6173;SDS011;3120;48.796;9.796;2023-07-16T15:42:00;4.32;;;1.23;;
6173;SDS011;3120;48.796;9.796;2023-07-16T15:44:26;4.10;;;1.48;;
6173;SDS011;3120;48.796;9.796;2023-07-16T15:46:53;4.80;;;1.08;;
6173;SDS011;3120;48.796;9.796;2023-07-16T15:49:19;3.97;;;1.05;;
6173;SDS011;3120;48.796;9.796;2023-07-16T15:51:45;6.47;;;1.20;;
6173;SDS011;3120;48.796;9.796;2023-07-16T15:54:12;3.20;;;1.00;;
6173;SDS011;3120;48.796;9.796;2023-07-16T15:56:39;7.45;;;1.52;;
6173;SDS011;3120;48.796;9.796;2023-07-16T15:59:04;3.60;;;0.95;;
6173;SDS011;3120;48.796;9.796;2023-07-16T16:01:30;4.15;;;1.13;;
6173;SDS011;3120;48.796;9.796;2023-07-16T16:03:56;2.78;;;1.10;;
6173;SDS011;3120;48.796;9.796;2023-07-16T16:06:22;3.88;;;1.30;;
6173;SDS011;3120;48.796;9.796;2023-07-16T16:08:48;5.35;;;0.90;;
6173;SDS011;3120;48.796;9.796;2023-07-16T16:11:13;6.97;;;0.85;;
6173;SDS011;3120;48.796;9.796;2023-07-16T16:13:39;3.88;;;1.00;;
6173;SDS011;3120;48.796;9.796;2023-07-16T16:16:05;3.40;;;1.10;;
6173;SDS011;3120;48.796;9.796;2023-07-16T16:18:31;4.03;;;1.30;;
6173;SDS011;3120;48.796;9.796;2023-07-16T16:21:10;5.65;;;1.08;;
6173;SDS011;3120;48.796;9.796;2023-07-16T16:23:36;2.47;;;1.05;;
6173;SDS011;3120;48.796;9.796;2023-07-16T16:26:02;7.03;;;1.05;;
6173;SDS011;3120;48.796;9.796;2023-07-16T16:28:29;4.80;;;1.20;;
6173;SDS011;3120;48.796;9.796;2023-07-16T16:30:57;1.65;;;0.80;;
6173;SDS011;3120;48.796;9.796;2023-07-16T16:33:24;3.13;;;0.77;;
6173;SDS011;3120;48.796;9.796;2023-07-16T16:35:55;5.05;;;1.10;;
6173;SDS011;3120;48.796;9.796;2023-07-16T16:38:23;1.95;;;0.98;;
6173;SDS011;3120;48.796;9.796;2023-07-16T16:40:53;5.28;;;1.05;;
6173;SDS011;3120;48.796;9.796;2023-07-16T16:49:42;2.55;;;1.08;;
6173;SDS011;3120;48.796;9.796;2023-07-16T16:52:11;11.93;;;1.00;;
6173;SDS011;3120;48.796;9.796;2023-07-16T16:57:32;2.90;;;0.90;;
6173;SDS011;3120;48.796;9.796;2023-07-16T17:00:03;4.72;;;1.27;;
6173;SDS011;3120;48.796;9.796;2023-07-16T17:03:06;2.88;;;0.90;;
6173;SDS011;3120;48.796;9.796;2023-07-16T17:05:50;2.72;;;0.90;;
6173;SDS011;3120;48.796;9.796;2023-07-16T17:10:59;7.47;;;1.20;;
6173;SDS011;3120;48.796;9.796;2023-07-16T17:13:26;5.30;;;1.20;;
6173;SDS011;3120;48.796;9.796;2023-07-16T17:16:01;3.83;;;1.30;;
6173;SDS011;3120;48.796;9.796;2023-07-16T17:18:39;3.55;;;1.40;;
6173;SDS011;3120;48.796;9.796;2023-07-16T17:21:12;2.50;;;1.25;;
6173;SDS011;3120;48.796;9.796;2023-07-16T17:23:38;3.13;;;1.33;;
6173;SDS011;3120;48.796;9.796;2023-07-16T17:55:11;5.15;;;1.30;;
6173;SDS011;3120;48.796;9.796;2023-07-16T17:57:37;3.25;;;1.33;;
6173;SDS011;3120;48.796;9.796;2023-07-16T18:00:03;5.35;;;1.55;;
6173;SDS011;3120;48.796;9.796;2023-07-16T18:02:32;3.53;;;1.30;;
6173;SDS011;3120;48.796;9.796;2023-07-16T18:05:13;8.23;;;4.35;;
6173;SDS011;3120;48.796;9.796;2023-07-16T18:07:44;5.85;;;2.42;;
6173;SDS011;3120;48.796;9.796;2023-07-16T18:10:29;5.47;;;1.83;;
6173;SDS011;3120;48.796;9.796;2023-07-16T18:13:28;3.83;;;1.50;;
6173;SDS011;3120;48.796;9.796;2023-07-16T18:16:49;7.68;;;1.25;;
6173;SDS011;3120;48.796;9.796;2023-07-16T18:19:24;4.78;;;1.15;;
6173;SDS011;3120;48.796;9.796;2023-07-16T18:28:39;3.65;;;1.25;;
6173;SDS011;3120;48.796;9.796;2023-07-16T18:31:24;3.15;;;1.40;;
6173;SDS011;3120;48.796;9.796;2023-07-16T18:34:43;4.93;;;1.58;;
6173;SDS011;3120;48.796;9.796;2023-07-16T18:37:55;4.50;;;1.20;;
6173;SDS011;3120;48.796;9.796;2023-07-16T18:40:33;6.22;;;1.40;;
6173;SDS011;3120;48.796;9.796;2023-07-16T18:43:09;6.70;;;1.70;;
6173;SDS011;3120;48.796;9.796;2023-07-16T18:45:50;5.90;;;1.60;;
6173;SDS011;3120;48.796;9.796;2023-07-16T18:51:39;3.53;;;1.50;;
6173;SDS011;3120;48.796;9.796;2023-07-16T18:54:15;3.13;;;1.50;;
6173;SDS011;3120;48.796;9.796;2023-07-16T18:56:56;4.47;;;1.40;;
6173;SDS011;3120;48.796;9.796;2023-07-16T18:59:43;4.68;;;1.63;;
6173;SDS011;3120;48.796;9.796;2023-07-16T19:05:40;4.63;;;1.50;;
6173;SDS011;3120;48.796;9.796;2023-07-16T19:08:37;6.80;;;1.75;;
6173;SDS011;3120;48.796;9.796;2023-07-16T19:11:33;5.03;;;1.80;;
6173;SDS011;3120;48.796;9.796;2023-07-16T19:14:37;6.10;;;1.80;;
6173;SDS011;3120;48.796;9.796;2023-07-16T19:17:13;9.25;;;2.28;;
6173;SDS011;3120;48.796;9.796;2023-07-16T19:20:38;6.95;;;1.77;;
6173;SDS011;3120;48.796;9.796;2023-07-16T19:27:07;3.60;;;1.60;;
6173;SDS011;3120;48.796;9.796;2023-07-16T19:32:58;4.90;;;1.73;;
6173;SDS011;3120;48.796;9.796;2023-07-16T19:35:40;11.25;;;2.10;;
6173;SDS011;3120;48.796;9.796;2023-07-16T19:38:06;3.38;;;1.50;;
6173;SDS011;3120;48.796;9.796;2023-07-16T19:40:35;4.85;;;2.08;;
6173;SDS011;3120;48.796;9.796;2023-07-16T19:43:00;6.28;;;1.73;;
6173;SDS011;3120;48.796;9.796;2023-07-16T19:45:27;8.73;;;2.40;;
6173;SDS011;3120;48.796;9.796;2023-07-16T19:53:11;5.07;;;1.75;;
6173;SDS011;3120;48.796;9.796;2023-07-16T19:56:10;4.88;;;1.50;;
6173;SDS011;3120;48.796;9.796;2023-07-16T20:02:33;5.22;;;1.80;;
6173;SDS011;3120;48.796;9.796;2023-07-16T20:08:37;4.18;;;2.05;;
6173;SDS011;3120;48.796;9.796;2023-07-16T20:11:05;4.65;;;1.40;;
6173;SDS011;3120;48.796;9.796;2023-07-16T20:13:30;12.85;;;1.80;;
6173;SDS011;3120;48.796;9.796;2023-07-16T20:15:56;7.93;;;3.72;;
6173;SDS011;3120;48.796;9.796;2023-07-16T20:18:21;11.38;;;5.32;;
6173;SDS011;3120;48.796;9.796;2023-07-16T20:20:47;10.70;;;3.05;;
6173;SDS011;3120;48.796;9.796;2023-07-16T20:23:13;6.22;;;2.45;;
6173;SDS011;3120;48.796;9.796;2023-07-16T20:25:39;5.20;;;1.88;;
6173;SDS011;3120;48.796;9.796;2023-07-16T20:28:09;4.45;;;1.92;;
6173;SDS011;3120;48.796;9.796;2023-07-16T20:30:40;9.90;;;2.50;;
6173;SDS011;3120;48.796;9.796;2023-07-16T20:33:09;5.93;;;2.10;;
6173;SDS011;3120;48.796;9.796;2023-07-16T20:35:35;5.10;;;1.98;;
6173;SDS011;3120;48.796;9.796;2023-07-16T20:38:01;7.22;;;2.63;;
6173;SDS011;3120;48.796;9.796;2023-07-16T20:40:28;7.10;;;3.08;;
6173;SDS011;3120;48.796;9.796;2023-07-16T20:42:55;5.15;;;2.33;;
6173;SDS011;3120;48.796;9.796;2023-07-16T20:45:22;6.25;;;2.40;;
6173;SDS011;3120;48.796;9.796;2023-07-16T20:47:49;19.45;;;9.65;;
6173;SDS011;3120;48.796;9.796;2023-07-16T20:50:17;12.35;;;3.42;;
6173;SDS011;3120;48.796;9.796;2023-07-16T20:52:45;11.50;;;3.10;;
6173;SDS011;3120;48.796;9.796;2023-07-16T20:55:15;4.90;;;1.80;;
6173;SDS011;3120;48.796;9.796;2023-07-16T20:57:42;7.35;;;2.08;;
6173;SDS011;3120;48.796;9.796;2023-07-16T21:00:09;6.18;;;2.08;;
6173;SDS011;3120;48.796;9.796;2023-07-16T21:02:39;5.68;;;2.08;;
6173;SDS011;3120;48.796;9.796;2023-07-16T21:05:15;7.05;;;2.10;;
6173;SDS011;3120;48.796;9.796;2023-07-16T21:07:41;7.25;;;2.10;;
6173;SDS011;3120;48.796;9.796;2023-07-16T21:10:07;7.10;;;2.05;;
6173;SDS011;3120;48.796;9.796;2023-07-16T21:12:35;4.63;;;2.20;;
6173;SDS011;3120;48.796;9.796;2023-07-16T21:15:01;8.13;;;2.33;;
6173;SDS011;3120;48.796;9.796;2023-07-16T21:17:28;8.07;;;1.98;;
6173;SDS011;3120;48.796;9.796;2023-07-16T21:19:55;9.07;;;2.17;;
6173;SDS011;3120;48.796;9.796;2023-07-16T21:22:25;5.80;;;2.00;;
6173;SDS011;3120;48.796;9.796;2023-07-16T21:24:54;5.35;;;1.67;;
6173;SDS011;3120;48.796;9.796;2023-07-16T21:27:27;9.15;;;2.42;;
6173;SDS011;3120;48.796;9.796;2023-07-16T21:29:54;5.95;;;2.20;;
6173;SDS011;3120;48.796;9.796;2023-07-16T21:32:20;4.75;;;1.98;;
6173;SDS011;3120;48.796;9.796;2023-07-16T21:34:47;4.30;;;2.20;;
6173;SDS011;3120;48.796;9.796;2023-07-16T21:37:13;4.15;;;2.30;;
6173;SDS011;3120;48.796;9.796;2023-07-16T21:39:39;7.40;;;2.15;;
6173;SDS011;3120;48.796;9.796;2023-07-16T21:42:08;5.30;;;1.98;;
6173;SDS011;3120;48.796;9.796;2023-07-16T21:44:46;6.80;;;2.20;;
6173;SDS011;3120;48.796;9.796;2023-07-16T21:47:12;6.07;;;2.25;;
6173;SDS011;3120;48.796;9.796;2023-07-16T21:49:40;10.25;;;2.10;;
6173;SDS011;3120;48.796;9.796;2023-07-16T21:52:06;7.07;;;2.45;;
6173;SDS011;3120;48.796;9.796;2023-07-16T21:57:03;5.03;;;2.05;;
6173;SDS011;3120;48.796;9.796;2023-07-16T21:59:31;7.60;;;2.28;;
6173;SDS011;3120;48.796;9.796;2023-07-16T22:02:00;8.55;;;2.58;;
6173;SDS011;3120;48.796;9.796;2023-07-16T22:04:26;4.78;;;1.95;;
6173;SDS011;3120;48.796;9.796;2023-07-16T22:06:52;8.60;;;2.28;;
6173;SDS011;3120;48.796;9.796;2023-07-16T22:09:17;9.13;;;2.17;;
6173;SDS011;3120;48.796;9.796;2023-07-16T22:11:43;5.90;;;1.83;;
6173;SDS011;3120;48.796;9.796;2023-07-16T22:14:09;5.65;;;2.50;;
6173;SDS011;3120;48.796;9.796;2023-07-16T22:16:35;8.57;;;2.38;;
6173;SDS011;3120;48.796;9.796;2023-07-16T22:19:02;4.13;;;1.80;;
6173;SDS011;3120;48.796;9.796;2023-07-16T22:21:32;7.82;;;2.67;;
6173;SDS011;3120;48.796;9.796;2023-07-16T22:24:02;6.22;;;2.35;;
6173;SDS011;3120;48.796;9.796;2023-07-16T22:26:35;7.22;;;2.28;;
6173;SDS011;3120;48.796;9.796;2023-07-16T22:29:02;5.30;;;2.10;;
6173;SDS011;3120;48.796;9.796;2023-07-16T22:31:28;7.50;;;2.10;;
6173;SDS011;3120;48.796;9.796;2023-07-16T22:33:56;8.25;;;1.95;;
6173;SDS011;3120;48.796;9.796;2023-07-16T22:36:22;10.48;;;2.05;;
6173;SDS011;3120;48.796;9.796;2023-07-16T22:38:48;9.20;;;2.05;;
6173;SDS011;3120;48.796;9.796;2023-07-16T22:41:14;7.32;;;2.17;;
6173;SDS011;3120;48.796;9.796;2023-07-16T22:43:39;7.45;;;2.05;;
6173;SDS011;3120;48.796;9.796;2023-07-16T22:46:05;6.95;;;2.55;;
6173;SDS011;3120;48.796;9.796;2023-07-16T22:48:33;5.78;;;2.22;;
6173;SDS011;3120;48.796;9.796;2023-07-16T22:51:03;8.90;;;2.00;;
6173;SDS011;3120;48.796;9.796;2023-07-16T22:53:29;3.90;;;2.05;;
6173;SDS011;3120;48.796;9.796;2023-07-16T22:55:54;6.43;;;2.10;;
6173;SDS011;3120;48.796;9.796;2023-07-16T22:58:24;6.78;;;2.40;;
6173;SDS011;3120;48.796;9.796;2023-07-16T23:00:50;4.13;;;2.00;;
6173;SDS011;3120;48.796;9.796;2023-07-16T23:03:15;11.55;;;2.50;;
6173;SDS011;3120;48.796;9.796;2023-07-16T23:05:41;10.82;;;2.35;;
6173;SDS011;3120;48.796;9.796;2023-07-16T23:13:13;5.50;;;2.17;;
6173;SDS011;3120;48.796;9.796;2023-07-16T23:15:39;6.65;;;2.20;;
6173;SDS011;3120;48.796;9.796;2023-07-16T23:18:05;6.10;;;2.55;;
6173;SDS011;3120;48.796;9.796;2023-07-16T23:20:30;7.65;;;2.50;;
6173;SDS011;3120;48.796;9.796;2023-07-16T23:22:56;6.15;;;2.35;;
6173;SDS011;3120;48.796;9.796;2023-07-16T23:25:23;6.20;;;1.92;;
6173;SDS011;3120;48.796;9.796;2023-07-16T23:27:50;6.15;;;1.98;;
6173;SDS011;3120;48.796;9.796;2023-07-16T23:30:15;9.10;;;2.80;;
6173;SDS011;3120;48.796;9.796;2023-07-16T23:32:41;10.35;;;2.40;;
6173;SDS011;3120;48.796;9.796;2023-07-16T23:35:08;5.63;;;2.35;;
6173;SDS011;3120;48.796;9.796;2023-07-16T23:37:33;9.98;;;2.17;;
6173;SDS011;3120;48.796;9.796;2023-07-16T23:39:59;6.38;;;2.08;;
6173;SDS011;3120;48.796;9.796;2023-07-16T23:42:25;5.30;;;1.95;;
6173;SDS011;3120;48.796;9.796;2023-07-16T23:44:52;6.30;;;2.28;;
6173;SDS011;3120;48.796;9.796;2023-07-16T23:47:18;9.20;;;2.55;;
6173;SDS011;3120;48.796;9.796;2023-07-16T23:49:43;7.13;;;2.40;;
6173;SDS011;3120;48.796;9.796;2023-07-16T23:52:09;6.85;;;2.13;;
6173;SDS011;3120;48.796;9.796;2023-07-16T23:54:34;5.05;;;2.20;;
6173;SDS011;3120;48.796;9.796;2023-07-16T23:57:00;3.75;;;1.75;;
6173;SDS011;3120;48.796;9.796;2023-07-16T23:59:26;8.50;;;2.47;;
